Chambers, NE (68725)

7:14 AM CST on December 03, 2016 (GMT -0600)
105 South Victoria Street | | Change Station

Elev 2132 ft 42.20 °N, 98.75 °W | Updated 20 seconds ago

Overcast
Overcast
29.5 °F
Feels Like 30 °F
N
2.9
Wind Variable Wind from SW
Gusts 3.6 mph

Today
High -- | Low -- °F
--% Chance of Precip.
Yesterday
High -- | Low -- °F
Precip. -- in
Pressure 30.17 in
Visibility 10.0 miles
Clouds Overcast 8000 ft
Windchill 30 °F
Dew Point 27 °F
Humidity 89%
Rainfall 0.00 in
Snow Depth Not available.
7:46 AM 5:03 PM
Waxing Crescent, 15% visible
METAR KONL 031255Z AUTO 16004KT 10SM OVC080 M02/M03 A3017 RMK AO2 T10221033
Pressure 30.17 in
Visibility 10.0 miles
Clouds Overcast 8000 ft
Windchill 30 °F
Dew Point 27 °F
Humidity 89%
Rainfall 0.00 in
Snow Depth Not available.
7:46 AM 5:03 PM
Waxing Crescent, 15% visible
METAR KONL 031255Z AUTO 16004KT 10SM OVC080 M02/M03 A3017 RMK AO2 T10221033

10-Day Weather Forecast

Almanac

Astronomy

Dec. 03, 2016 Rise Set
Actual Time
Civil Twilight
Nautical Twilight
Astronomical Twilight
Moon
Length of Visible Light
Length of Day
Tomorrow will be .
, % of the Moon is Illuminated

Today's Extremes

State Highs State Lows

Community

WunderPhotos

Upload Photos

1,955,443 photos uploaded!

WunderBlog® & News

Nearby

Air Quality

  Air Quality AQ Index Pollutant
Not available.

Snow Depth

Station Depth Elevation

Earthquake Activity

City Distance Mag. Time & Date
Minimum magnitude displayed is 2.5.

Coastal Water Temperatures

Place Temperature

Stations

Nearby Weather Stations

Station Location Temp. Windchill Dew Point Humidity Wind Precip. Elev Updated Type
                   

Watches & Warnings

There are currently no watches in effect.